createdAt,value
2018-11-11T10:25:13.384Z,1011.61
2018-11-11T10:27:47.805Z,1011.55
2018-11-11T10:29:24.381Z,1011.51
2018-11-11T10:30:51.578Z,1011.53
2018-11-11T10:32:19.026Z,1011.58
2018-11-11T10:33:46.666Z,1011.57
2018-11-11T10:35:13.972Z,1011.63
2018-11-11T10:36:41.506Z,1011.64
2018-11-11T10:38:12.036Z,1011.66
2018-11-11T10:39:36.324Z,1011.62
2018-11-11T10:41:03.832Z,1011.65
2018-11-11T10:42:31.284Z,1011.64
2018-11-11T10:43:58.658Z,1011.65
2018-11-11T10:45:26.326Z,1011.65
2018-11-11T10:46:53.693Z,1011.65
2018-11-11T10:48:21.008Z,1011.70
2018-11-11T10:49:48.368Z,1011.70
2018-11-11T10:51:15.957Z,1011.72
2018-11-11T10:52:43.404Z,1011.69
2018-11-11T10:54:10.939Z,1011.68
2018-11-11T10:55:38.394Z,1011.69
2018-11-11T10:57:05.955Z,1011.73
2018-11-11T10:58:33.456Z,1011.74
2018-11-11T11:00:00.913Z,1011.76
2018-11-11T11:01:28.442Z,1011.79
2018-11-11T11:02:56.088Z,1011.80
2018-11-11T11:04:23.509Z,1011.78
2018-11-11T11:05:50.698Z,1011.78
2018-11-11T11:07:18.173Z,1011.83
2018-11-11T11:08:45.619Z,1011.85
2018-11-11T11:10:12.918Z,1011.84
2018-11-11T11:11:40.323Z,1011.81
2018-11-11T11:13:07.828Z,1011.83
2018-11-11T11:14:35.132Z,1011.87
2018-11-11T11:16:02.872Z,1011.89
2018-11-11T11:17:30.357Z,1011.91
2018-11-11T11:18:57.834Z,1011.93
2018-11-11T11:20:25.328Z,1011.89
2018-11-11T11:21:52.736Z,1011.92
2018-11-11T11:23:20.111Z,1011.84
2018-11-11T11:24:47.443Z,1011.94
2018-11-11T11:26:14.980Z,1011.94
2018-11-11T11:27:42.383Z,1011.92
2018-11-11T11:29:09.791Z,1011.92
2018-11-11T11:30:37.061Z,1011.91
2018-11-11T11:32:04.641Z,1011.88
2018-11-11T11:33:32.140Z,1011.97
2018-11-11T11:34:59.620Z,1011.94
2018-11-11T11:36:26.829Z,1011.99
2018-11-11T11:37:54.240Z,1011.98
2018-11-11T11:39:21.853Z,1011.96
2018-11-11T11:40:49.396Z,1011.94
2018-11-11T11:42:16.883Z,1012.00
2018-11-11T11:43:44.327Z,1011.97
2018-11-11T11:45:11.911Z,1012.00
2018-11-11T11:46:39.483Z,1012.01
2018-11-11T11:48:06.791Z,1012.00
2018-11-11T11:49:34.095Z,1012.02
2018-11-11T11:51:01.715Z,1012.05
2018-11-11T11:52:29.319Z,1012.00
2018-11-11T11:53:56.607Z,1012.02
2018-11-11T11:55:24.158Z,1012.02
2018-11-11T11:56:51.569Z,1012.02
2018-11-11T11:58:18.891Z,1012.04
2018-11-11T11:59:46.152Z,1012.05
2018-11-11T12:01:13.661Z,1012.02
2018-11-11T12:02:41.193Z,1012.00
2018-11-11T12:04:08.627Z,1012.00
2018-11-11T12:05:36.424Z,1011.96
2018-11-11T12:07:03.668Z,1011.95
2018-11-11T12:08:31.141Z,1011.96
2018-11-11T12:09:58.418Z,1011.95
2018-11-11T12:11:26.034Z,1011.93
2018-11-11T12:19:59.897Z,1011.88
2018-11-11T12:21:26.701Z,1011.88
2018-11-11T12:22:53.959Z,1011.90
2018-11-11T12:24:21.360Z,1011.90
2018-11-11T12:25:48.687Z,1011.87
2018-11-11T12:27:16.202Z,1011.83
2018-11-11T12:28:43.614Z,1011.83
2018-11-11T12:30:11.097Z,1011.79
2018-11-11T12:31:38.564Z,1011.82
2018-11-11T12:33:06.104Z,1011.80
2018-11-11T12:34:33.500Z,1011.80
2018-11-11T12:36:01.121Z,1011.78
2018-11-11T12:37:28.517Z,1011.82
2018-11-11T12:38:55.978Z,1011.80
2018-11-11T12:40:33.049Z,1011.79
2018-11-11T12:52:40.147Z,1011.85
2018-11-11T12:54:06.928Z,1011.84
2018-11-11T12:55:34.337Z,1011.88
2018-11-11T13:08:29.735Z,1011.87
2018-11-11T13:09:56.255Z,1011.85
2018-11-11T13:11:33.467Z,1011.83
2018-11-11T13:13:00.707Z,1011.86
2018-11-11T13:44:40.410Z,1012.00
2018-11-11T13:46:07.172Z,1012.00
2018-11-11T13:47:34.430Z,1012.02
2018-11-11T13:49:01.667Z,1012.03
2018-11-11T13:50:28.890Z,1012.01
2018-11-11T13:51:56.236Z,1012.03
2018-11-11T13:53:23.752Z,1012.07
2018-11-11T13:54:50.986Z,1012.07
2018-11-11T13:56:18.558Z,1012.10
2018-11-11T13:57:45.977Z,1012.13
2018-11-11T13:59:13.072Z,1012.15
2018-11-11T14:00:40.344Z,1012.19
2018-11-11T14:02:08.037Z,1012.17
2018-11-11T14:03:34.974Z,1012.18
2018-11-11T14:05:01.987Z,1012.20
2018-11-11T14:06:29.027Z,1012.24
2018-11-11T14:18:45.830Z,1012.44
2018-11-11T14:20:12.582Z,1012.45
2018-11-11T14:21:39.776Z,1012.50
